sensor_id;sensor_type;location;lat;lon;timestamp;P1;durP1;ratioP1;P2;durP2;ratioP2
63818;SDS011;49970;54.976;73.248;2023-07-02T00:01:56;14.10;;;2.40;;
63818;SDS011;49970;54.976;73.248;2023-07-02T00:04:22;14.57;;;2.13;;
63818;SDS011;49970;54.976;73.248;2023-07-02T00:06:48;10.88;;;1.75;;
63818;SDS011;49970;54.976;73.248;2023-07-02T00:09:15;10.88;;;1.88;;
63818;SDS011;49970;54.976;73.248;2023-07-02T00:11:43;10.48;;;2.53;;
63818;SDS011;49970;54.976;73.248;2023-07-02T00:14:12;4.32;;;1.75;;
63818;SDS011;49970;54.976;73.248;2023-07-02T00:16:41;9.50;;;2.03;;
63818;SDS011;49970;54.976;73.248;2023-07-02T00:19:13;4.35;;;1.98;;
63818;SDS011;49970;54.976;73.248;2023-07-02T00:21:39;3.35;;;1.90;;
63818;SDS011;49970;54.976;73.248;2023-07-02T00:24:07;10.75;;;1.80;;
63818;SDS011;49970;54.976;73.248;2023-07-02T00:26:35;8.00;;;1.92;;
63818;SDS011;49970;54.976;73.248;2023-07-02T00:29:09;9.18;;;2.17;;
63818;SDS011;49970;54.976;73.248;2023-07-02T00:31:35;8.25;;;1.60;;
63818;SDS011;49970;54.976;73.248;2023-07-02T00:34:02;11.10;;;2.80;;
63818;SDS011;49970;54.976;73.248;2023-07-02T00:36:29;11.13;;;2.47;;
63818;SDS011;49970;54.976;73.248;2023-07-02T00:38:56;10.95;;;2.08;;
63818;SDS011;49970;54.976;73.248;2023-07-02T00:41:24;3.67;;;1.75;;
63818;SDS011;49970;54.976;73.248;2023-07-02T00:43:50;9.82;;;1.88;;
63818;SDS011;49970;54.976;73.248;2023-07-02T00:46:21;8.55;;;2.00;;
63818;SDS011;49970;54.976;73.248;2023-07-02T00:48:52;10.63;;;2.10;;
63818;SDS011;49970;54.976;73.248;2023-07-02T00:51:23;12.75;;;1.45;;
63818;SDS011;49970;54.976;73.248;2023-07-02T00:53:51;5.28;;;1.73;;
63818;SDS011;49970;54.976;73.248;2023-07-02T00:56:20;8.63;;;2.10;;
63818;SDS011;49970;54.976;73.248;2023-07-02T00:58:48;22.20;;;2.20;;
63818;SDS011;49970;54.976;73.248;2023-07-02T01:01:21;19.30;;;2.50;;
63818;SDS011;49970;54.976;73.248;2023-07-02T01:03:51;3.78;;;1.85;;
63818;SDS011;49970;54.976;73.248;2023-07-02T01:06:22;12.15;;;2.42;;
63818;SDS011;49970;54.976;73.248;2023-07-02T01:08:51;3.95;;;2.03;;
63818;SDS011;49970;54.976;73.248;2023-07-02T01:11:32;8.82;;;1.70;;
63818;SDS011;49970;54.976;73.248;2023-07-02T01:17:02;6.22;;;1.30;;
63818;SDS011;49970;54.976;73.248;2023-07-02T01:19:42;16.95;;;1.80;;
63818;SDS011;49970;54.976;73.248;2023-07-02T01:22:17;13.95;;;2.60;;
63818;SDS011;49970;54.976;73.248;2023-07-02T01:24:44;9.93;;;2.30;;
63818;SDS011;49970;54.976;73.248;2023-07-02T01:27:17;4.07;;;1.65;;
63818;SDS011;49970;54.976;73.248;2023-07-02T01:29:46;4.88;;;2.08;;
63818;SDS011;49970;54.976;73.248;2023-07-02T01:32:13;11.27;;;1.90;;
63818;SDS011;49970;54.976;73.248;2023-07-02T01:34:39;6.18;;;1.73;;
63818;SDS011;49970;54.976;73.248;2023-07-02T01:37:10;23.20;;;1.80;;
63818;SDS011;49970;54.976;73.248;2023-07-02T01:39:37;4.35;;;2.13;;
63818;SDS011;49970;54.976;73.248;2023-07-02T01:42:07;6.60;;;1.45;;
63818;SDS011;49970;54.976;73.248;2023-07-02T01:44:35;9.70;;;2.13;;
63818;SDS011;49970;54.976;73.248;2023-07-02T01:47:02;10.05;;;1.95;;
63818;SDS011;49970;54.976;73.248;2023-07-02T01:49:29;10.25;;;1.80;;
63818;SDS011;49970;54.976;73.248;2023-07-02T01:51:55;8.25;;;1.83;;
63818;SDS011;49970;54.976;73.248;2023-07-02T01:54:23;13.43;;;1.90;;
63818;SDS011;49970;54.976;73.248;2023-07-02T01:56:53;7.43;;;1.75;;
63818;SDS011;49970;54.976;73.248;2023-07-02T01:59:22;13.75;;;1.80;;
63818;SDS011;49970;54.976;73.248;2023-07-02T02:01:49;10.57;;;1.92;;
63818;SDS011;49970;54.976;73.248;2023-07-02T02:04:16;11.10;;;1.75;;
63818;SDS011;49970;54.976;73.248;2023-07-02T02:06:42;10.52;;;1.50;;
63818;SDS011;49970;54.976;73.248;2023-07-02T02:09:09;9.57;;;1.40;;
63818;SDS011;49970;54.976;73.248;2023-07-02T02:11:40;5.68;;;1.52;;
63818;SDS011;49970;54.976;73.248;2023-07-02T02:14:09;16.05;;;1.55;;
63818;SDS011;49970;54.976;73.248;2023-07-02T02:16:35;12.77;;;1.77;;
63818;SDS011;49970;54.976;73.248;2023-07-02T02:19:02;4.45;;;1.70;;
63818;SDS011;49970;54.976;73.248;2023-07-02T02:21:29;10.25;;;1.92;;
63818;SDS011;49970;54.976;73.248;2023-07-02T02:23:55;8.63;;;1.90;;
63818;SDS011;49970;54.976;73.248;2023-07-02T02:26:21;5.47;;;1.38;;
63818;SDS011;49970;54.976;73.248;2023-07-02T02:28:48;11.77;;;1.33;;
63818;SDS011;49970;54.976;73.248;2023-07-02T02:31:15;3.50;;;1.10;;
63818;SDS011;49970;54.976;73.248;2023-07-02T02:33:42;10.23;;;1.50;;
63818;SDS011;49970;54.976;73.248;2023-07-02T02:36:09;9.52;;;1.52;;
63818;SDS011;49970;54.976;73.248;2023-07-02T02:38:35;4.22;;;1.80;;
63818;SDS011;49970;54.976;73.248;2023-07-02T02:41:04;5.97;;;1.65;;
63818;SDS011;49970;54.976;73.248;2023-07-02T02:43:35;6.95;;;1.58;;
63818;SDS011;49970;54.976;73.248;2023-07-02T02:46:02;19.63;;;1.75;;
63818;SDS011;49970;54.976;73.248;2023-07-02T02:48:29;4.53;;;1.67;;
63818;SDS011;49970;54.976;73.248;2023-07-02T02:50:55;13.23;;;2.28;;
63818;SDS011;49970;54.976;73.248;2023-07-02T02:53:21;5.20;;;2.13;;
63818;SDS011;49970;54.976;73.248;2023-07-02T02:55:48;2.63;;;1.48;;
63818;SDS011;49970;54.976;73.248;2023-07-02T02:58:14;9.40;;;2.30;;
63818;SDS011;49970;54.976;73.248;2023-07-02T03:00:40;7.43;;;1.70;;
63818;SDS011;49970;54.976;73.248;2023-07-02T03:04:56;5.00;;;1.67;;
63818;SDS011;49970;54.976;73.248;2023-07-02T03:08:27;9.95;;;2.00;;
63818;SDS011;49970;54.976;73.248;2023-07-02T03:10:54;14.43;;;2.08;;
63818;SDS011;49970;54.976;73.248;2023-07-02T03:13:20;12.75;;;1.70;;
63818;SDS011;49970;54.976;73.248;2023-07-02T03:15:46;5.72;;;1.80;;
63818;SDS011;49970;54.976;73.248;2023-07-02T03:18:13;9.25;;;1.65;;
63818;SDS011;49970;54.976;73.248;2023-07-02T03:20:39;14.55;;;1.85;;
63818;SDS011;49970;54.976;73.248;2023-07-02T03:23:05;19.38;;;1.70;;
63818;SDS011;49970;54.976;73.248;2023-07-02T03:25:33;15.02;;;2.17;;
63818;SDS011;49970;54.976;73.248;2023-07-02T03:27:59;4.93;;;1.70;;
63818;SDS011;49970;54.976;73.248;2023-07-02T03:30:25;10.90;;;1.50;;
63818;SDS011;49970;54.976;73.248;2023-07-02T03:32:51;6.20;;;1.60;;
63818;SDS011;49970;54.976;73.248;2023-07-02T03:35:18;11.88;;;1.60;;
63818;SDS011;49970;54.976;73.248;2023-07-02T03:37:44;14.93;;;1.52;;
63818;SDS011;49970;54.976;73.248;2023-07-02T03:40:12;5.57;;;1.15;;
63818;SDS011;49970;54.976;73.248;2023-07-02T03:42:38;9.48;;;1.38;;
63818;SDS011;49970;54.976;73.248;2023-07-02T03:45:05;3.42;;;1.20;;
63818;SDS011;49970;54.976;73.248;2023-07-02T03:47:31;8.75;;;1.50;;
63818;SDS011;49970;54.976;73.248;2023-07-02T03:49:58;12.30;;;1.42;;
63818;SDS011;49970;54.976;73.248;2023-07-02T03:52:24;8.40;;;1.50;;
63818;SDS011;49970;54.976;73.248;2023-07-02T03:54:50;26.00;;;1.70;;
63818;SDS011;49970;54.976;73.248;2023-07-02T03:57:16;9.00;;;1.50;;
63818;SDS011;49970;54.976;73.248;2023-07-02T03:59:43;8.60;;;1.77;;
63818;SDS011;49970;54.976;73.248;2023-07-02T04:02:09;18.13;;;1.95;;
63818;SDS011;49970;54.976;73.248;2023-07-02T04:04:35;12.55;;;2.40;;
63818;SDS011;49970;54.976;73.248;2023-07-02T04:07:02;9.57;;;1.77;;
63818;SDS011;49970;54.976;73.248;2023-07-02T04:09:28;4.00;;;2.17;;
63818;SDS011;49970;54.976;73.248;2023-07-02T04:11:54;11.60;;;3.10;;
63818;SDS011;49970;54.976;73.248;2023-07-02T04:14:21;7.82;;;1.88;;
63818;SDS011;49970;54.976;73.248;2023-07-02T04:16:47;4.05;;;1.88;;
63818;SDS011;49970;54.976;73.248;2023-07-02T04:19:13;9.32;;;1.88;;
63818;SDS011;49970;54.976;73.248;2023-07-02T04:21:39;11.32;;;2.67;;
63818;SDS011;49970;54.976;73.248;2023-07-02T04:24:05;7.03;;;2.17;;
63818;SDS011;49970;54.976;73.248;2023-07-02T04:26:32;11.15;;;2.22;;
63818;SDS011;49970;54.976;73.248;2023-07-02T04:28:58;3.80;;;1.52;;
63818;SDS011;49970;54.976;73.248;2023-07-02T04:31:24;6.78;;;1.40;;
63818;SDS011;49970;54.976;73.248;2023-07-02T04:33:51;4.95;;;1.40;;
63818;SDS011;49970;54.976;73.248;2023-07-02T04:36:17;21.42;;;1.70;;
63818;SDS011;49970;54.976;73.248;2023-07-02T04:38:45;6.13;;;1.88;;
63818;SDS011;49970;54.976;73.248;2023-07-02T04:41:11;14.40;;;1.65;;
63818;SDS011;49970;54.976;73.248;2023-07-02T04:43:38;12.20;;;1.77;;
63818;SDS011;49970;54.976;73.248;2023-07-02T04:46:04;14.70;;;2.08;;
63818;SDS011;49970;54.976;73.248;2023-07-02T04:48:33;6.07;;;1.40;;
63818;SDS011;49970;54.976;73.248;2023-07-02T04:50:59;5.00;;;1.50;;
63818;SDS011;49970;54.976;73.248;2023-07-02T04:53:25;7.22;;;1.40;;
63818;SDS011;49970;54.976;73.248;2023-07-02T04:55:53;15.57;;;1.73;;
63818;SDS011;49970;54.976;73.248;2023-07-02T04:58:19;4.55;;;1.77;;
63818;SDS011;49970;54.976;73.248;2023-07-02T05:00:46;3.33;;;1.63;;
63818;SDS011;49970;54.976;73.248;2023-07-02T05:03:12;7.50;;;1.50;;
63818;SDS011;49970;54.976;73.248;2023-07-02T05:05:39;4.95;;;1.73;;
63818;SDS011;49970;54.976;73.248;2023-07-02T05:08:05;8.02;;;1.75;;
63818;SDS011;49970;54.976;73.248;2023-07-02T05:10:32;8.85;;;1.83;;
63818;SDS011;49970;54.976;73.248;2023-07-02T05:12:58;5.15;;;1.65;;
63818;SDS011;49970;54.976;73.248;2023-07-02T05:15:24;3.65;;;1.70;;
63818;SDS011;49970;54.976;73.248;2023-07-02T05:17:51;6.95;;;1.73;;
63818;SDS011;49970;54.976;73.248;2023-07-02T05:20:18;10.15;;;1.95;;
63818;SDS011;49970;54.976;73.248;2023-07-02T05:22:45;15.38;;;2.50;;
63818;SDS011;49970;54.976;73.248;2023-07-02T05:25:11;11.52;;;2.40;;
63818;SDS011;49970;54.976;73.248;2023-07-02T05:27:37;6.95;;;2.03;;
63818;SDS011;49970;54.976;73.248;2023-07-02T05:30:03;8.32;;;2.00;;
63818;SDS011;49970;54.976;73.248;2023-07-02T05:32:30;4.72;;;2.15;;
63818;SDS011;49970;54.976;73.248;2023-07-02T05:34:56;16.85;;;2.38;;
63818;SDS011;49970;54.976;73.248;2023-07-02T05:37:23;2.80;;;1.83;;
63818;SDS011;49970;54.976;73.248;2023-07-02T05:39:49;12.70;;;2.22;;
63818;SDS011;49970;54.976;73.248;2023-07-02T05:42:15;8.27;;;1.92;;
63818;SDS011;49970;54.976;73.248;2023-07-02T05:44:41;11.18;;;2.50;;
63818;SDS011;49970;54.976;73.248;2023-07-02T05:47:07;15.88;;;2.38;;
63818;SDS011;49970;54.976;73.248;2023-07-02T05:49:34;5.72;;;2.60;;
63818;SDS011;49970;54.976;73.248;2023-07-02T05:52:00;17.73;;;2.47;;
63818;SDS011;49970;54.976;73.248;2023-07-02T05:54:26;14.30;;;2.15;;
63818;SDS011;49970;54.976;73.248;2023-07-02T05:56:52;3.50;;;1.80;;
63818;SDS011;49970;54.976;73.248;2023-07-02T05:59:19;7.18;;;1.92;;
63818;SDS011;49970;54.976;73.248;2023-07-02T06:01:45;3.00;;;1.83;;
63818;SDS011;49970;54.976;73.248;2023-07-02T06:04:12;11.65;;;2.40;;
63818;SDS011;49970;54.976;73.248;2023-07-02T06:06:38;9.35;;;2.17;;
63818;SDS011;49970;54.976;73.248;2023-07-02T06:09:04;10.80;;;2.40;;
63818;SDS011;49970;54.976;73.248;2023-07-02T06:11:30;2.15;;;1.67;;
63818;SDS011;49970;54.976;73.248;2023-07-02T06:13:57;5.82;;;1.95;;
63818;SDS011;49970;54.976;73.248;2023-07-02T06:16:23;8.68;;;2.22;;
63818;SDS011;49970;54.976;73.248;2023-07-02T06:18:50;10.68;;;1.90;;
63818;SDS011;49970;54.976;73.248;2023-07-02T06:21:17;5.32;;;2.00;;
63818;SDS011;49970;54.976;73.248;2023-07-02T06:23:43;6.53;;;2.50;;
63818;SDS011;49970;54.976;73.248;2023-07-02T06:26:10;11.80;;;2.30;;
63818;SDS011;49970;54.976;73.248;2023-07-02T06:28:36;2.40;;;1.75;;
63818;SDS011;49970;54.976;73.248;2023-07-02T06:31:04;5.65;;;1.92;;
63818;SDS011;49970;54.976;73.248;2023-07-02T06:33:30;11.57;;;2.15;;
63818;SDS011;49970;54.976;73.248;2023-07-02T06:35:58;2.65;;;2.03;;
63818;SDS011;49970;54.976;73.248;2023-07-02T06:38:24;3.30;;;1.63;;
63818;SDS011;49970;54.976;73.248;2023-07-02T06:40:50;5.88;;;1.88;;
63818;SDS011;49970;54.976;73.248;2023-07-02T06:43:17;14.00;;;2.47;;
63818;SDS011;49970;54.976;73.248;2023-07-02T06:45:44;7.00;;;2.00;;
63818;SDS011;49970;54.976;73.248;2023-07-02T06:48:10;2.05;;;1.80;;
63818;SDS011;49970;54.976;73.248;2023-07-02T06:50:36;17.35;;;2.13;;
63818;SDS011;49970;54.976;73.248;2023-07-02T06:54:27;14.00;;;2.47;;
63818;SDS011;49970;54.976;73.248;2023-07-02T06:57:34;4.18;;;1.65;;
63818;SDS011;49970;54.976;73.248;2023-07-02T07:00:12;7.15;;;2.20;;
63818;SDS011;49970;54.976;73.248;2023-07-02T07:02:43;27.75;;;2.35;;
63818;SDS011;49970;54.976;73.248;2023-07-02T07:05:14;3.58;;;1.73;;
63818;SDS011;49970;54.976;73.248;2023-07-02T07:07:43;10.32;;;2.28;;
63818;SDS011;49970;54.976;73.248;2023-07-02T07:10:13;12.93;;;1.70;;
63818;SDS011;49970;54.976;73.248;2023-07-02T07:12:46;7.20;;;2.17;;
63818;SDS011;49970;54.976;73.248;2023-07-02T07:15:16;18.45;;;2.55;;
63818;SDS011;49970;54.976;73.248;2023-07-02T07:17:45;15.60;;;2.03;;
63818;SDS011;49970;54.976;73.248;2023-07-02T07:20:16;4.72;;;1.92;;
63818;SDS011;49970;54.976;73.248;2023-07-02T07:22:47;15.38;;;1.70;;
63818;SDS011;49970;54.976;73.248;2023-07-02T07:25:18;35.08;;;2.88;;
63818;SDS011;49970;54.976;73.248;2023-07-02T07:27:48;20.23;;;2.10;;
63818;SDS011;49970;54.976;73.248;2023-07-02T07:30:21;9.57;;;2.05;;
63818;SDS011;49970;54.976;73.248;2023-07-02T07:32:51;13.57;;;1.73;;
63818;SDS011;49970;54.976;73.248;2023-07-02T07:35:21;4.78;;;1.77;;
63818;SDS011;49970;54.976;73.248;2023-07-02T07:37:51;3.78;;;1.70;;
63818;SDS011;49970;54.976;73.248;2023-07-02T07:40:26;7.03;;;1.58;;
63818;SDS011;49970;54.976;73.248;2023-07-02T07:43:00;7.65;;;1.90;;
63818;SDS011;49970;54.976;73.248;2023-07-02T07:45:31;6.28;;;1.60;;
63818;SDS011;49970;54.976;73.248;2023-07-02T07:48:02;17.40;;;2.47;;
63818;SDS011;49970;54.976;73.248;2023-07-02T07:50:33;16.23;;;2.75;;
63818;SDS011;49970;54.976;73.248;2023-07-02T07:53:03;9.70;;;2.00;;
63818;SDS011;49970;54.976;73.248;2023-07-02T07:55:33;15.88;;;1.92;;
63818;SDS011;49970;54.976;73.248;2023-07-02T07:58:04;5.15;;;1.73;;
63818;SDS011;49970;54.976;73.248;2023-07-02T08:00:38;9.68;;;1.83;;
63818;SDS011;49970;54.976;73.248;2023-07-02T08:03:09;6.00;;;1.58;;
63818;SDS011;49970;54.976;73.248;2023-07-02T08:05:39;5.53;;;1.50;;
63818;SDS011;49970;54.976;73.248;2023-07-02T08:09:30;13.73;;;1.98;;
63818;SDS011;49970;54.976;73.248;2023-07-02T08:13:21;9.25;;;1.60;;
63818;SDS011;49970;54.976;73.248;2023-07-02T08:17:36;4.22;;;1.65;;
63818;SDS011;49970;54.976;73.248;2023-07-02T08:21:27;9.00;;;1.73;;
63818;SDS011;49970;54.976;73.248;2023-07-02T08:25:19;17.73;;;2.05;;
63818;SDS011;49970;54.976;73.248;2023-07-02T08:29:10;7.63;;;1.77;;
63818;SDS011;49970;54.976;73.248;2023-07-02T08:33:01;14.82;;;1.88;;
63818;SDS011;49970;54.976;73.248;2023-07-02T08:36:52;13.60;;;2.60;;
63818;SDS011;49970;54.976;73.248;2023-07-02T08:43:32;3.38;;;2.17;;
63818;SDS011;49970;54.976;73.248;2023-07-02T08:47:25;6.40;;;2.70;;
63818;SDS011;49970;54.976;73.248;2023-07-02T08:51:16;16.60;;;2.78;;
63818;SDS011;49970;54.976;73.248;2023-07-02T08:55:08;10.05;;;2.00;;
63818;SDS011;49970;54.976;73.248;2023-07-02T08:58:59;6.32;;;2.00;;
63818;SDS011;49970;54.976;73.248;2023-07-02T09:02:49;7.88;;;1.88;;
63818;SDS011;49970;54.976;73.248;2023-07-02T09:06:42;8.25;;;3.05;;
63818;SDS011;49970;54.976;73.248;2023-07-02T09:10:34;5.10;;;2.30;;
63818;SDS011;49970;54.976;73.248;2023-07-02T09:14:30;7.90;;;1.75;;
63818;SDS011;49970;54.976;73.248;2023-07-02T09:18:18;16.65;;;2.30;;
63818;SDS011;49970;54.976;73.248;2023-07-02T09:22:08;8.32;;;1.75;;
63818;SDS011;49970;54.976;73.248;2023-07-02T09:25:59;4.32;;;1.92;;
63818;SDS011;49970;54.976;73.248;2023-07-02T09:29:51;7.10;;;1.70;;
63818;SDS011;49970;54.976;73.248;2023-07-02T09:33:40;3.28;;;1.70;;
63818;SDS011;49970;54.976;73.248;2023-07-02T09:37:31;16.15;;;1.90;;
63818;SDS011;49970;54.976;73.248;2023-07-02T09:39:58;3.22;;;1.70;;
63818;SDS011;49970;54.976;73.248;2023-07-02T09:42:25;3.38;;;1.45;;
63818;SDS011;49970;54.976;73.248;2023-07-02T09:44:51;9.73;;;1.42;;
63818;SDS011;49970;54.976;73.248;2023-07-02T09:47:18;6.05;;;1.80;;
63818;SDS011;49970;54.976;73.248;2023-07-02T09:49:47;15.15;;;2.13;;
63818;SDS011;49970;54.976;73.248;2023-07-02T09:52:17;4.72;;;2.30;;
63818;SDS011;49970;54.976;73.248;2023-07-02T09:54:45;8.48;;;2.08;;
63818;SDS011;49970;54.976;73.248;2023-07-02T09:57:12;5.97;;;1.92;;
63818;SDS011;49970;54.976;73.248;2023-07-02T09:59:41;12.38;;;1.77;;
63818;SDS011;49970;54.976;73.248;2023-07-02T10:02:08;7.22;;;1.60;;
63818;SDS011;49970;54.976;73.248;2023-07-02T10:04:39;14.70;;;2.25;;
63818;SDS011;49970;54.976;73.248;2023-07-02T10:07:07;10.32;;;1.98;;
63818;SDS011;49970;54.976;73.248;2023-07-02T10:09:34;5.20;;;1.77;;
63818;SDS011;49970;54.976;73.248;2023-07-02T10:12:21;9.95;;;1.80;;
63818;SDS011;49970;54.976;73.248;2023-07-02T10:14:52;5.60;;;1.50;;
63818;SDS011;49970;54.976;73.248;2023-07-02T10:19:52;6.88;;;1.65;;
63818;SDS011;49970;54.976;73.248;2023-07-02T10:22:19;10.05;;;2.20;;
63818;SDS011;49970;54.976;73.248;2023-07-02T10:24:53;12.20;;;2.55;;
63818;SDS011;49970;54.976;73.248;2023-07-02T10:27:19;9.65;;;1.95;;
63818;SDS011;49970;54.976;73.248;2023-07-02T10:29:49;13.88;;;2.33;;
63818;SDS011;49970;54.976;73.248;2023-07-02T10:32:29;32.42;;;2.88;;
63818;SDS011;49970;54.976;73.248;2023-07-02T10:34:55;2.50;;;1.50;;
63818;SDS011;49970;54.976;73.248;2023-07-02T10:37:21;24.15;;;2.53;;
63818;SDS011;49970;54.976;73.248;2023-07-02T10:39:48;2.72;;;1.70;;
63818;SDS011;49970;54.976;73.248;2023-07-02T10:42:14;7.38;;;1.80;;
63818;SDS011;49970;54.976;73.248;2023-07-02T10:44:50;7.55;;;1.83;;
63818;SDS011;49970;54.976;73.248;2023-07-02T10:47:17;13.35;;;2.10;;
63818;SDS011;49970;54.976;73.248;2023-07-02T10:49:45;5.70;;;1.80;;
63818;SDS011;49970;54.976;73.248;2023-07-02T10:52:11;7.70;;;1.83;;
63818;SDS011;49970;54.976;73.248;2023-07-02T10:54:41;15.27;;;1.83;;
63818;SDS011;49970;54.976;73.248;2023-07-02T10:57:09;4.55;;;1.73;;
63818;SDS011;49970;54.976;73.248;2023-07-02T10:59:37;11.02;;;2.13;;
63818;SDS011;49970;54.976;73.248;2023-07-02T11:02:03;6.35;;;1.73;;
63818;SDS011;49970;54.976;73.248;2023-07-02T11:04:30;10.48;;;1.88;;
63818;SDS011;49970;54.976;73.248;2023-07-02T11:06:57;13.07;;;1.80;;
63818;SDS011;49970;54.976;73.248;2023-07-02T11:09:24;4.70;;;1.52;;
63818;SDS011;49970;54.976;73.248;2023-07-02T11:11:54;9.00;;;1.83;;
63818;SDS011;49970;54.976;73.248;2023-07-02T11:17:02;5.07;;;1.98;;
63818;SDS011;49970;54.976;73.248;2023-07-02T11:19:31;19.30;;;1.98;;
63818;SDS011;49970;54.976;73.248;2023-07-02T11:21:58;3.50;;;1.58;;
63818;SDS011;49970;54.976;73.248;2023-07-02T11:24:34;15.50;;;1.90;;
63818;SDS011;49970;54.976;73.248;2023-07-02T11:27:03;6.15;;;1.88;;
63818;SDS011;49970;54.976;73.248;2023-07-02T11:30:54;6.57;;;1.80;;
63818;SDS011;49970;54.976;73.248;2023-07-02T11:33:31;7.15;;;1.83;;
63818;SDS011;49970;54.976;73.248;2023-07-02T11:36:06;18.60;;;2.28;;
63818;SDS011;49970;54.976;73.248;2023-07-02T11:38:43;41.28;;;2.40;;
63818;SDS011;49970;54.976;73.248;2023-07-02T11:41:10;17.98;;;2.63;;
63818;SDS011;49970;54.976;73.248;2023-07-02T11:43:37;21.67;;;2.90;;
63818;SDS011;49970;54.976;73.248;2023-07-02T11:46:04;16.88;;;2.05;;
63818;SDS011;49970;54.976;73.248;2023-07-02T11:48:30;8.38;;;1.88;;
63818;SDS011;49970;54.976;73.248;2023-07-02T11:51:17;4.85;;;1.70;;
63818;SDS011;49970;54.976;73.248;2023-07-02T11:53:44;14.82;;;1.80;;
63818;SDS011;49970;54.976;73.248;2023-07-02T11:56:10;9.35;;;2.03;;
63818;SDS011;49970;54.976;73.248;2023-07-02T11:58:39;17.77;;;2.13;;
63818;SDS011;49970;54.976;73.248;2023-07-02T12:01:05;6.88;;;1.77;;
63818;SDS011;49970;54.976;73.248;2023-07-02T12:03:31;14.63;;;2.45;;
63818;SDS011;49970;54.976;73.248;2023-07-02T12:05:59;17.52;;;2.17;;
63818;SDS011;49970;54.976;73.248;2023-07-02T12:08:25;5.85;;;1.52;;
63818;SDS011;49970;54.976;73.248;2023-07-02T12:11:05;9.15;;;1.65;;
63818;SDS011;49970;54.976;73.248;2023-07-02T12:13:31;16.33;;;2.15;;
63818;SDS011;49970;54.976;73.248;2023-07-02T12:15:59;3.85;;;1.58;;
63818;SDS011;49970;54.976;73.248;2023-07-02T12:18:37;11.63;;;1.60;;
63818;SDS011;49970;54.976;73.248;2023-07-02T12:21:03;4.22;;;1.25;;
63818;SDS011;49970;54.976;73.248;2023-07-02T12:23:36;18.80;;;1.70;;
63818;SDS011;49970;54.976;73.248;2023-07-02T12:26:03;4.47;;;1.48;;
63818;SDS011;49970;54.976;73.248;2023-07-02T12:28:29;17.20;;;1.70;;
63818;SDS011;49970;54.976;73.248;2023-07-02T12:30:55;10.40;;;1.63;;
63818;SDS011;49970;54.976;73.248;2023-07-02T12:33:21;7.40;;;1.90;;
63818;SDS011;49970;54.976;73.248;2023-07-02T12:35:47;2.85;;;1.58;;
63818;SDS011;49970;54.976;73.248;2023-07-02T12:38:14;31.20;;;2.85;;
63818;SDS011;49970;54.976;73.248;2023-07-02T12:40:40;18.65;;;2.05;;
63818;SDS011;49970;54.976;73.248;2023-07-02T12:43:06;23.05;;;2.05;;
63818;SDS011;49970;54.976;73.248;2023-07-02T12:45:33;11.00;;;1.42;;
63818;SDS011;49970;54.976;73.248;2023-07-02T12:47:59;7.32;;;1.40;;
63818;SDS011;49970;54.976;73.248;2023-07-02T12:50:25;3.30;;;1.30;;
63818;SDS011;49970;54.976;73.248;2023-07-02T12:52:51;8.73;;;1.40;;
63818;SDS011;49970;54.976;73.248;2023-07-02T12:55:18;21.27;;;2.00;;
63818;SDS011;49970;54.976;73.248;2023-07-02T12:57:44;8.10;;;1.58;;
63818;SDS011;49970;54.976;73.248;2023-07-02T13:00:11;22.77;;;2.20;;
63818;SDS011;49970;54.976;73.248;2023-07-02T13:02:38;6.05;;;1.58;;
63818;SDS011;49970;54.976;73.248;2023-07-02T13:05:04;7.90;;;1.80;;
63818;SDS011;49970;54.976;73.248;2023-07-02T13:07:31;1.70;;;1.50;;
63818;SDS011;49970;54.976;73.248;2023-07-02T13:09:57;4.32;;;1.40;;
63818;SDS011;49970;54.976;73.248;2023-07-02T13:12:23;15.05;;;2.00;;
63818;SDS011;49970;54.976;73.248;2023-07-02T13:14:49;18.30;;;1.95;;
63818;SDS011;49970;54.976;73.248;2023-07-02T13:17:15;18.13;;;2.50;;
63818;SDS011;49970;54.976;73.248;2023-07-02T13:21:07;11.10;;;3.20;;
63818;SDS011;49970;54.976;73.248;2023-07-02T13:23:33;4.85;;;2.13;;
63818;SDS011;49970;54.976;73.248;2023-07-02T13:26:00;9.43;;;1.90;;
63818;SDS011;49970;54.976;73.248;2023-07-02T13:28:26;4.75;;;1.80;;
63818;SDS011;49970;54.976;73.248;2023-07-02T13:30:53;26.42;;;2.50;;
63818;SDS011;49970;54.976;73.248;2023-07-02T13:33:20;10.45;;;2.78;;
63818;SDS011;49970;54.976;73.248;2023-07-02T13:35:47;2.35;;;2.15;;
63818;SDS011;49970;54.976;73.248;2023-07-02T13:38:13;6.53;;;2.10;;
63818;SDS011;49970;54.976;73.248;2023-07-02T13:40:39;11.02;;;3.10;;
63818;SDS011;49970;54.976;73.248;2023-07-02T13:43:07;18.67;;;5.50;;
63818;SDS011;49970;54.976;73.248;2023-07-02T13:45:34;9.38;;;5.97;;
63818;SDS011;49970;54.976;73.248;2023-07-02T13:48:01;15.68;;;4.70;;
63818;SDS011;49970;54.976;73.248;2023-07-02T13:50:27;16.38;;;3.35;;
63818;SDS011;49970;54.976;73.248;2023-07-02T13:52:54;8.70;;;2.53;;
63818;SDS011;49970;54.976;73.248;2023-07-02T13:55:21;15.93;;;2.55;;
63818;SDS011;49970;54.976;73.248;2023-07-02T13:57:58;9.90;;;2.30;;
63818;SDS011;49970;54.976;73.248;2023-07-02T14:00:28;13.57;;;2.28;;
63818;SDS011;49970;54.976;73.248;2023-07-02T14:02:55;7.05;;;2.80;;
63818;SDS011;49970;54.976;73.248;2023-07-02T14:05:22;7.03;;;2.38;;
63818;SDS011;49970;54.976;73.248;2023-07-02T14:07:49;5.97;;;2.30;;
63818;SDS011;49970;54.976;73.248;2023-07-02T14:10:18;15.70;;;2.90;;
63818;SDS011;49970;54.976;73.248;2023-07-02T14:12:45;3.20;;;2.80;;
63818;SDS011;49970;54.976;73.248;2023-07-02T14:15:11;6.80;;;2.33;;
63818;SDS011;49970;54.976;73.248;2023-07-02T14:19:03;9.48;;;3.45;;
63818;SDS011;49970;54.976;73.248;2023-07-02T14:22:54;21.98;;;3.83;;
63818;SDS011;49970;54.976;73.248;2023-07-02T14:26:43;15.73;;;5.50;;
63818;SDS011;49970;54.976;73.248;2023-07-02T14:30:33;8.60;;;5.38;;
63818;SDS011;49970;54.976;73.248;2023-07-02T14:34:51;13.88;;;6.25;;
63818;SDS011;49970;54.976;73.248;2023-07-02T14:38:42;23.15;;;4.78;;
63818;SDS011;49970;54.976;73.248;2023-07-02T14:42:33;23.52;;;5.32;;
63818;SDS011;49970;54.976;73.248;2023-07-02T14:50:23;30.35;;;5.03;;
63818;SDS011;49970;54.976;73.248;2023-07-02T14:54:12;31.38;;;5.97;;
63818;SDS011;49970;54.976;73.248;2023-07-02T14:58:28;31.83;;;6.05;;
63818;SDS011;49970;54.976;73.248;2023-07-02T15:02:19;54.28;;;5.82;;
63818;SDS011;49970;54.976;73.248;2023-07-02T15:06:11;30.02;;;5.40;;
63818;SDS011;49970;54.976;73.248;2023-07-02T15:10:00;28.58;;;5.00;;
63818;SDS011;49970;54.976;73.248;2023-07-02T15:13:52;45.38;;;7.38;;
63818;SDS011;49970;54.976;73.248;2023-07-02T15:22:03;30.95;;;7.68;;
63818;SDS011;49970;54.976;73.248;2023-07-02T15:25:55;39.13;;;9.05;;
63818;SDS011;49970;54.976;73.248;2023-07-02T15:29:44;24.13;;;7.63;;
63818;SDS011;49970;54.976;73.248;2023-07-02T15:33:36;33.60;;;8.63;;
63818;SDS011;49970;54.976;73.248;2023-07-02T15:37:24;42.70;;;9.95;;
63818;SDS011;49970;54.976;73.248;2023-07-02T15:41:14;31.25;;;10.30;;
63818;SDS011;49970;54.976;73.248;2023-07-02T15:45:05;36.17;;;9.50;;
63818;SDS011;49970;54.976;73.248;2023-07-02T15:53:17;82.28;;;18.85;;
63818;SDS011;49970;54.976;73.248;2023-07-02T15:57:08;73.30;;;15.98;;
63818;SDS011;49970;54.976;73.248;2023-07-02T16:01:08;96.22;;;16.83;;
63818;SDS011;49970;54.976;73.248;2023-07-02T16:04:49;63.05;;;16.98;;
63818;SDS011;49970;54.976;73.248;2023-07-02T16:08:39;63.05;;;17.42;;
63818;SDS011;49970;54.976;73.248;2023-07-02T16:12:31;63.03;;;16.85;;
63818;SDS011;49970;54.976;73.248;2023-07-02T16:16:21;70.18;;;16.73;;